createdAt,value
2019-01-19T00:02:27.019Z,97.92
2019-01-19T00:05:14.637Z,97.09
2019-01-19T00:08:22.724Z,96.86
2019-01-19T00:11:04.671Z,98.20
2019-01-19T00:14:12.723Z,98.44
2019-01-19T00:17:20.043Z,97.57
2019-01-19T00:20:16.766Z,98.29
2019-01-19T00:23:24.831Z,98.26
2019-01-19T00:26:25.079Z,98.53
2019-01-19T00:29:01.023Z,98.66
2019-01-19T00:32:08.274Z,98.61
2019-01-19T00:34:50.619Z,97.40
2019-01-19T00:37:57.963Z,97.35
2019-01-19T00:41:05.222Z,96.48
2019-01-19T00:44:12.524Z,96.20
2019-01-19T00:47:19.879Z,95.83
2019-01-19T00:49:59.454Z,95.91
2019-01-19T00:52:50.758Z,95.96
2019-01-19T00:55:58.847Z,96.04
2019-01-19T00:59:06.057Z,96.84
2019-01-19T01:02:06.735Z,98.68
2019-01-19T01:05:13.895Z,97.33
2019-01-19T01:08:21.042Z,96.73
2019-01-19T01:11:28.317Z,96.51
2019-01-19T01:14:38.718Z,98.16
2019-01-19T01:17:31.039Z,97.63
2019-01-19T01:20:39.095Z,96.87
2019-01-19T01:23:46.412Z,97.33
2019-01-19T01:26:53.713Z,98.25
2019-01-19T01:30:01.023Z,98.54
2019-01-19T01:32:35.999Z,99.01
2019-01-19T01:35:43.262Z,98.52
2019-01-19T01:38:50.504Z,98.64
2019-01-19T01:41:57.754Z,97.80
2019-01-19T01:44:48.799Z,97.41
2019-01-19T01:47:56.057Z,96.52
2019-01-19T01:50:56.816Z,96.72
2019-01-19T01:54:04.074Z,98.43
2019-01-19T01:56:32.497Z,97.82
2019-01-19T01:59:40.548Z,96.56
2019-01-19T02:02:50.772Z,96.65
2019-01-19T02:05:51.887Z,96.65
2019-01-19T02:12:39.595Z,98.55
2019-01-19T02:15:34.244Z,99.22
2019-01-19T02:18:27.198Z,99.60
2019-01-19T02:21:35.252Z,99.32
2019-01-19T02:24:42.559Z,98.46
2019-01-19T02:27:50.624Z,97.22
2019-01-19T02:30:57.824Z,98.39
2019-01-19T02:34:05.894Z,97.55
2019-01-19T02:37:13.060Z,97.41
2019-01-19T02:40:13.300Z,96.77
2019-01-19T02:43:20.561Z,97.71
2019-01-19T02:46:27.975Z,96.56
2019-01-19T02:49:36.471Z,96.16
2019-01-19T02:52:31.225Z,96.60
2019-01-19T02:55:39.179Z,98.65
2019-01-19T03:02:07.251Z,98.83
2019-01-19T03:04:57.533Z,98.17
2019-01-19T03:07:49.530Z,98.89
2019-01-19T03:10:57.574Z,98.34
2019-01-19T03:13:54.662Z,98.15
2019-01-19T03:16:53.015Z,97.88
2019-01-19T03:20:00.309Z,98.82
2019-01-19T03:22:53.622Z,97.41
2019-01-19T03:26:00.781Z,98.36
2019-01-19T03:29:08.031Z,99.27
2019-01-19T03:32:15.189Z,98.29
2019-01-19T03:35:22.443Z,98.74
2019-01-19T03:38:26.711Z,99.45
2019-01-19T03:41:34.157Z,100.00
2019-01-19T03:44:33.539Z,100.00
2019-01-19T03:47:41.588Z,99.71
2019-01-19T03:50:48.899Z,98.98
2019-01-19T03:53:57.130Z,98.89
2019-01-19T03:57:13.297Z,100.00
2019-01-19T04:00:20.708Z,100.00
2019-01-19T04:03:28.769Z,99.23
2019-01-19T04:06:36.021Z,99.22
2019-01-19T04:09:48.297Z,99.53
2019-01-19T04:12:55.652Z,100.00
2019-01-19T04:16:03.016Z,100.00
2019-01-19T04:19:10.364Z,99.66
2019-01-19T04:22:17.623Z,99.20
2019-01-19T04:25:00.473Z,100.00
2019-01-19T04:27:29.016Z,100.00
2019-01-19T04:29:57.636Z,100.00
2019-01-19T04:32:26.946Z,99.54
2019-01-19T04:34:56.262Z,99.71
2019-01-19T04:37:25.612Z,99.93
2019-01-19T04:39:54.927Z,100.00
2019-01-19T04:42:23.663Z,100.00
2019-01-19T04:44:52.180Z,100.00
2019-01-19T04:47:21.505Z,99.94
2019-01-19T04:49:50.025Z,100.00
2019-01-19T04:52:18.561Z,100.00
2019-01-19T04:54:48.497Z,100.00
2019-01-19T04:57:37.188Z,100.00
2019-01-19T05:03:10.743Z,100.00
2019-01-19T05:05:39.258Z,100.00
2019-01-19T05:08:08.587Z,100.00
2019-01-19T05:10:37.909Z,100.00
2019-01-19T05:13:07.236Z,100.00
2019-01-19T05:15:36.560Z,100.00
2019-01-19T05:23:43.099Z,100.00
2019-01-19T05:26:11.623Z,100.00
2019-01-19T05:28:40.957Z,100.00
2019-01-19T05:31:10.282Z,100.00
2019-01-19T05:33:39.619Z,100.00
2019-01-19T05:36:08.925Z,100.00
2019-01-19T05:38:38.253Z,100.00
2019-01-19T05:41:07.592Z,100.00
2019-01-19T05:43:37.129Z,100.00
2019-01-19T05:46:06.557Z,100.00
2019-01-19T05:48:35.083Z,100.00
2019-01-19T05:51:04.409Z,100.00
2019-01-19T05:53:32.939Z,100.00
2019-01-19T05:56:02.263Z,100.00
2019-01-19T05:58:31.594Z,100.00
2019-01-19T06:01:00.111Z,100.00
2019-01-19T06:03:29.464Z,100.00
2019-01-19T06:05:59.117Z,100.00
2019-01-19T06:08:28.451Z,100.00
2019-01-19T06:10:57.774Z,100.00
2019-01-19T06:13:26.300Z,100.00
2019-01-19T06:15:54.920Z,100.00
2019-01-19T06:18:23.494Z,100.00
2019-01-19T06:20:52.973Z,100.00
2019-01-19T06:23:22.503Z,100.00
2019-01-19T06:25:51.023Z,100.00
2019-01-19T06:28:20.429Z,99.95
2019-01-19T06:30:49.739Z,100.00
2019-01-19T06:33:18.262Z,100.00
2019-01-19T06:35:46.694Z,100.00
2019-01-19T06:38:16.045Z,99.67
2019-01-19T06:40:45.372Z,99.82
2019-01-19T06:43:14.692Z,99.67
2019-01-19T06:45:44.032Z,99.58
2019-01-19T06:48:13.342Z,99.17
2019-01-19T06:50:42.674Z,98.94
2019-01-19T06:53:12.005Z,98.32
2019-01-19T06:55:41.364Z,98.10
2019-01-19T06:58:09.988Z,98.35
2019-01-19T07:00:38.600Z,99.14
2019-01-19T07:03:07.938Z,99.73
2019-01-19T07:05:37.273Z,99.41
2019-01-19T07:08:06.590Z,99.09
2019-01-19T07:10:35.915Z,99.21
2019-01-19T07:13:05.337Z,98.42
2019-01-19T07:15:34.649Z,97.88
2019-01-19T07:18:04.012Z,97.37
2019-01-19T07:20:32.557Z,97.73
2019-01-19T07:23:01.906Z,97.32
2019-01-19T07:25:30.436Z,97.28
2019-01-19T07:27:59.795Z,97.21
2019-01-19T07:30:29.122Z,97.43
2019-01-19T07:32:58.890Z,97.36
2019-01-19T07:35:28.320Z,97.05
2019-01-19T07:37:57.650Z,97.11
2019-01-19T07:40:27.019Z,97.52
2019-01-19T07:45:54.870Z,97.49
2019-01-19T07:48:24.204Z,97.60
2019-01-19T07:50:53.560Z,97.17
2019-01-19T07:53:22.292Z,97.29
2019-01-19T07:55:51.724Z,97.27
2019-01-19T08:01:04.282Z,96.92
2019-01-19T08:06:36.856Z,96.75
2019-01-19T08:09:10.262Z,97.13
2019-01-19T08:11:39.703Z,96.67
2019-01-19T08:14:09.043Z,96.72
2019-01-19T08:16:38.489Z,96.38
2019-01-19T08:19:06.972Z,96.65
2019-01-19T08:21:35.588Z,97.34
2019-01-19T08:24:04.175Z,97.72
2019-01-19T08:26:33.508Z,97.87
2019-01-19T08:31:46.035Z,97.32
2019-01-19T08:34:15.356Z,97.91
2019-01-19T08:36:43.878Z,97.79
2019-01-19T08:39:13.222Z,97.27
2019-01-19T08:41:42.713Z,97.57
2019-01-19T08:44:12.029Z,98.90
2019-01-19T08:46:41.351Z,97.80
2019-01-19T08:49:10.683Z,97.69
2019-01-19T08:51:39.811Z,98.17
2019-01-19T08:54:10.022Z,97.31
2019-01-19T08:56:38.558Z,97.22
2019-01-19T08:59:07.089Z,96.66
2019-01-19T09:01:36.406Z,96.22
2019-01-19T09:04:05.570Z,97.31
2019-01-19T09:06:35.700Z,97.37
2019-01-19T09:12:10.617Z,96.69
2019-01-19T09:14:40.987Z,95.30
2019-01-19T09:17:11.006Z,95.39
2019-01-19T09:19:40.538Z,92.58
2019-01-19T09:22:29.496Z,92.33
2019-01-19T09:24:58.847Z,91.90
2019-01-19T09:27:27.373Z,90.40
2019-01-19T09:29:56.738Z,89.36
2019-01-19T09:32:25.397Z,89.19
2019-01-19T09:34:54.740Z,88.24
2019-01-19T09:37:24.077Z,87.77
2019-01-19T09:39:52.610Z,88.22
2019-01-19T09:42:21.052Z,88.01
2019-01-19T09:44:50.375Z,87.90
2019-01-19T09:47:18.918Z,87.29
2019-01-19T09:49:48.255Z,86.74
2019-01-19T09:52:21.301Z,86.83
2019-01-19T09:54:48.029Z,87.17
2019-01-19T09:57:16.562Z,87.65
2019-01-19T09:59:45.878Z,89.54
2019-01-19T10:02:14.406Z,77.99
2019-01-19T10:04:43.736Z,81.78
2019-01-19T10:07:12.500Z,83.41
2019-01-19T10:09:42.305Z,86.04
2019-01-19T10:12:10.971Z,87.38
2019-01-19T10:14:40.737Z,88.88
2019-01-19T10:17:10.095Z,89.53
2019-01-19T10:19:39.432Z,90.09
2019-01-19T10:22:08.884Z,90.68
2019-01-19T10:24:38.219Z,90.46
2019-01-19T10:27:07.561Z,90.74
2019-01-19T10:29:36.204Z,91.59
2019-01-19T10:32:04.646Z,90.05
2019-01-19T10:34:33.175Z,89.56
2019-01-19T10:37:02.619Z,88.62
2019-01-19T10:39:31.950Z,89.95
2019-01-19T10:42:01.276Z,89.68
2019-01-19T10:44:29.813Z,89.32
2019-01-19T10:46:58.339Z,88.62
2019-01-19T10:49:26.868Z,91.19
2019-01-19T10:51:59.452Z,90.28
2019-01-19T10:54:45.566Z,87.88
2019-01-19T10:57:14.898Z,88.83
2019-01-19T10:59:44.246Z,89.32
2019-01-19T11:02:13.576Z,88.00
2019-01-19T11:04:43.066Z,86.71
2019-01-19T11:07:12.523Z,88.75
2019-01-19T11:09:41.862Z,88.31
2019-01-19T11:12:10.400Z,88.84
2019-01-19T11:14:39.796Z,87.62
2019-01-19T11:17:09.136Z,87.64
2019-01-19T11:19:38.479Z,84.84
2019-01-19T11:22:07.231Z,86.43
2019-01-19T11:24:35.757Z,92.24
2019-01-19T11:27:05.104Z,86.63
2019-01-19T11:29:34.432Z,87.38
2019-01-19T11:32:04.022Z,88.07
2019-01-19T11:34:33.359Z,88.63
2019-01-19T11:37:01.844Z,88.91
2019-01-19T11:39:30.471Z,89.47
2019-01-19T11:41:59.794Z,89.92
2019-01-19T11:44:28.245Z,89.34
2019-01-19T11:46:57.658Z,89.84
2019-01-19T11:49:26.997Z,89.85
2019-01-19T11:51:56.360Z,90.17
2019-01-19T11:54:25.883Z,90.30
2019-01-19T11:56:54.415Z,90.80
2019-01-19T11:59:23.755Z,90.44
2019-01-19T12:01:53.088Z,91.96
2019-01-19T12:04:21.520Z,90.67
2019-01-19T12:06:49.937Z,91.26
2019-01-19T12:09:18.479Z,95.51
2019-01-19T12:11:47.869Z,89.74
2019-01-19T12:14:17.206Z,88.73
2019-01-19T12:16:46.523Z,86.62
2019-01-19T12:19:15.857Z,86.64
2019-01-19T12:21:44.862Z,85.58
2019-01-19T12:24:13.513Z,85.26
2019-01-19T12:26:42.052Z,84.29
2019-01-19T12:29:10.488Z,86.23
2019-01-19T12:31:39.129Z,84.81
2019-01-19T12:34:08.485Z,84.25
2019-01-19T12:36:36.911Z,83.99
2019-01-19T12:39:07.683Z,85.48
2019-01-19T12:41:36.324Z,85.45
2019-01-19T12:44:06.526Z,86.38
2019-01-19T12:46:35.073Z,86.81
2019-01-19T12:49:04.802Z,87.13
2019-01-19T12:51:33.345Z,87.88
2019-01-19T12:54:02.784Z,85.70
2019-01-19T12:56:31.316Z,89.65
2019-01-19T12:59:00.667Z,91.91
2019-01-19T13:01:30.005Z,92.30
2019-01-19T13:03:59.448Z,94.11
2019-01-19T13:07:07.498Z,95.19
2019-01-19T13:09:39.459Z,94.08
2019-01-19T13:12:31.400Z,94.52
2019-01-19T13:15:49.224Z,96.47
2019-01-19T13:18:57.894Z,96.66
2019-01-19T13:22:05.231Z,97.31
2019-01-19T13:24:57.724Z,98.07
2019-01-19T13:28:04.972Z,98.78
2019-01-19T13:31:12.136Z,97.66
2019-01-19T13:34:19.557Z,98.08
2019-01-19T13:37:14.969Z,97.69
2019-01-19T13:40:07.215Z,96.28
2019-01-19T13:43:10.275Z,96.62
2019-01-19T13:46:01.412Z,96.32
2019-01-19T13:49:09.460Z,95.01
2019-01-19T13:52:09.413Z,95.18
2019-01-19T13:55:16.597Z,96.07
2019-01-19T13:58:16.413Z,97.37
2019-01-19T14:01:24.462Z,95.76
2019-01-19T14:04:31.819Z,95.04
2019-01-19T14:07:34.249Z,95.62
2019-01-19T14:10:30.528Z,95.13
2019-01-19T14:13:37.784Z,95.82
2019-01-19T14:16:45.143Z,95.71
2019-01-19T14:19:52.452Z,95.75
2019-01-19T14:23:00.516Z,95.19
2019-01-19T14:26:07.660Z,95.21
2019-01-19T14:29:14.906Z,96.09
2019-01-19T14:32:22.230Z,97.01
2019-01-19T14:35:29.545Z,95.95
2019-01-19T14:38:33.848Z,95.95
2019-01-19T14:41:36.437Z,96.07
2019-01-19T14:44:44.488Z,96.75
2019-01-19T14:47:51.743Z,97.93
2019-01-19T14:50:59.013Z,98.31
2019-01-19T14:53:54.152Z,99.16
2019-01-19T14:56:53.957Z,99.25
2019-01-19T14:59:30.848Z,99.48
2019-01-19T15:02:38.899Z,99.53
2019-01-19T15:05:30.608Z,100.00
2019-01-19T15:08:25.353Z,100.00
2019-01-19T15:11:26.435Z,100.00
2019-01-19T15:14:33.958Z,100.00
2019-01-19T15:17:30.644Z,100.00
2019-01-19T15:20:31.501Z,100.00
2019-01-19T15:23:39.556Z,100.00
2019-01-19T15:26:46.806Z,100.00
2019-01-19T15:29:53.980Z,100.00
2019-01-19T15:32:46.820Z,100.00
2019-01-19T15:35:54.164Z,100.00
2019-01-19T15:38:53.222Z,100.00
2019-01-19T15:42:00.469Z,100.00
2019-01-19T15:45:07.722Z,100.00
2019-01-19T15:48:15.190Z,100.00
2019-01-19T15:51:14.090Z,100.00
2019-01-19T15:54:22.198Z,100.00
2019-01-19T15:57:30.255Z,100.00
2019-01-19T16:00:26.712Z,100.00
2019-01-19T16:03:34.431Z,100.00
2019-01-19T16:06:43.591Z,100.00
2019-01-19T16:09:50.758Z,100.00
2019-01-19T16:12:46.101Z,100.00
2019-01-19T16:15:47.307Z,100.00
2019-01-19T16:18:55.434Z,100.00
2019-01-19T16:22:02.797Z,100.00
2019-01-19T16:25:10.147Z,100.00
2019-01-19T16:28:17.563Z,100.00
2019-01-19T16:31:25.621Z,100.00
2019-01-19T16:34:32.984Z,100.00
2019-01-19T16:37:40.241Z,100.00
2019-01-19T16:40:47.671Z,100.00
2019-01-19T16:43:39.194Z,100.00
2019-01-19T16:46:31.092Z,100.00
2019-01-19T16:49:14.752Z,100.00
2019-01-19T16:52:22.828Z,100.00
2019-01-19T16:55:30.504Z,100.00
2019-01-19T16:58:37.771Z,100.00
2019-01-19T17:01:45.031Z,100.00
2019-01-19T17:04:55.350Z,100.00
2019-01-19T17:08:03.408Z,100.00
2019-01-19T17:11:10.769Z,100.00
2019-01-19T17:14:18.019Z,100.00
2019-01-19T17:17:03.350Z,100.00
2019-01-19T17:20:10.670Z,100.00
2019-01-19T17:23:18.801Z,100.00
2019-01-19T17:26:02.818Z,100.00
2019-01-19T17:29:10.158Z,100.00
2019-01-19T17:31:48.194Z,100.00
2019-01-19T17:34:40.355Z,100.00
2019-01-19T17:37:48.412Z,100.00
2019-01-19T17:40:55.665Z,100.00
2019-01-19T17:44:03.078Z,100.00
2019-01-19T17:47:11.134Z,100.00
2019-01-19T17:50:18.378Z,100.00
2019-01-19T17:53:18.875Z,100.00
2019-01-19T17:56:26.189Z,100.00
2019-01-19T17:59:27.234Z,100.00
2019-01-19T18:02:34.586Z,100.00
2019-01-19T18:05:41.839Z,100.00
2019-01-19T18:08:49.295Z,100.00
2019-01-19T18:11:56.700Z,100.00
2019-01-19T18:15:04.746Z,100.00
2019-01-19T18:17:57.544Z,100.00
2019-01-19T18:21:04.747Z,100.00
2019-01-19T18:23:52.770Z,100.00
2019-01-19T18:26:53.552Z,100.00
2019-01-19T18:30:01.596Z,100.00
2019-01-19T18:33:08.866Z,100.00
2019-01-19T18:36:16.123Z,100.00
2019-01-19T18:39:20.497Z,100.00
2019-01-19T18:42:27.746Z,100.00
2019-01-19T18:45:35.054Z,100.00
2019-01-19T18:48:27.990Z,100.00
2019-01-19T18:51:36.165Z,100.00
2019-01-19T18:54:37.350Z,100.00
2019-01-19T18:57:45.398Z,100.00
2019-01-19T19:00:34.649Z,100.00
2019-01-19T19:03:42.758Z,100.00
2019-01-19T19:06:50.036Z,100.00
2019-01-19T19:09:38.129Z,100.00
2019-01-19T19:12:46.177Z,100.00
2019-01-19T19:15:55.277Z,100.00
2019-01-19T19:18:46.126Z,100.00
2019-01-19T19:21:42.045Z,100.00
2019-01-19T19:24:49.340Z,100.00
2019-01-19T19:27:56.541Z,100.00
2019-01-19T19:31:03.860Z,100.00
2019-01-19T19:34:11.217Z,100.00
2019-01-19T19:37:18.566Z,100.00
2019-01-19T19:40:19.088Z,100.00
2019-01-19T19:43:27.137Z,100.00
2019-01-19T19:46:28.096Z,100.00
2019-01-19T19:49:36.221Z,100.00
2019-01-19T19:52:05.827Z,100.00
2019-01-19T19:54:35.325Z,100.00
2019-01-19T19:57:04.394Z,100.00
2019-01-19T19:59:32.909Z,100.00
2019-01-19T20:02:02.242Z,100.00
2019-01-19T20:07:33.958Z,100.00
2019-01-19T20:13:05.319Z,100.00
2019-01-19T20:15:34.646Z,100.00
2019-01-19T20:18:04.357Z,100.00
2019-01-19T20:20:33.718Z,100.00
2019-01-19T20:23:03.161Z,100.00
2019-01-19T20:25:32.475Z,100.00
2019-01-19T20:28:01.907Z,100.00
2019-01-19T20:30:31.240Z,100.00
2019-01-19T20:33:00.595Z,100.00
2019-01-19T20:35:29.224Z,100.00
2019-01-19T20:37:57.873Z,100.00
2019-01-19T20:40:26.410Z,100.00
2019-01-19T20:42:55.736Z,100.00
2019-01-19T20:45:25.061Z,100.00
2019-01-19T20:47:54.385Z,100.00
2019-01-19T20:50:23.709Z,100.00
2019-01-19T20:52:53.048Z,100.00
2019-01-19T20:55:22.493Z,100.00
2019-01-19T20:57:51.830Z,100.00
2019-01-19T21:00:21.439Z,100.00
2019-01-19T21:02:49.967Z,100.00
2019-01-19T21:05:19.300Z,100.00
2019-01-19T21:07:48.664Z,100.00
2019-01-19T21:10:17.986Z,100.00
2019-01-19T21:12:47.327Z,100.00
2019-01-19T21:15:16.760Z,100.00
2019-01-19T21:17:46.076Z,100.00
2019-01-19T21:20:15.413Z,100.00
2019-01-19T21:22:44.818Z,100.00
2019-01-19T21:25:14.375Z,100.00
2019-01-19T21:27:43.699Z,100.00
2019-01-19T21:30:12.843Z,100.00
2019-01-19T21:32:41.463Z,100.00
2019-01-19T21:35:11.201Z,100.00
2019-01-19T21:37:40.525Z,100.00
2019-01-19T21:43:12.757Z,100.00
2019-01-19T21:45:42.077Z,100.00
2019-01-19T21:48:10.605Z,100.00
2019-01-19T21:50:40.036Z,100.00
2019-01-19T21:53:09.368Z,100.00
2019-01-19T21:55:38.790Z,100.00
2019-01-19T21:58:08.111Z,100.00
2019-01-19T22:00:37.431Z,100.00
2019-01-19T22:03:06.770Z,100.00
2019-01-19T22:05:35.183Z,100.00
2019-01-19T22:08:04.605Z,100.00
2019-01-19T22:10:33.243Z,100.00
2019-01-19T22:13:02.569Z,100.00
2019-01-19T22:15:31.896Z,100.00
2019-01-19T22:18:01.221Z,100.00
2019-01-19T22:20:30.581Z,100.00
2019-01-19T22:22:59.930Z,100.00
2019-01-19T22:25:29.263Z,100.00
2019-01-19T22:27:58.589Z,100.00
2019-01-19T22:30:27.921Z,100.00
2019-01-19T22:32:57.358Z,100.00
2019-01-19T22:38:22.982Z,100.00
2019-01-19T22:40:53.737Z,100.00
2019-01-19T22:43:41.536Z,100.00
2019-01-19T22:46:10.939Z,100.00
2019-01-19T22:48:40.270Z,100.00
2019-01-19T22:51:11.310Z,100.00
2019-01-19T22:53:58.820Z,100.00
2019-01-19T22:56:28.147Z,100.00
2019-01-19T22:58:56.571Z,100.00
2019-01-19T23:02:04.629Z,100.00
2019-01-19T23:04:33.138Z,100.00
2019-01-19T23:07:02.466Z,100.00
2019-01-19T23:09:31.783Z,100.00
2019-01-19T23:12:01.207Z,100.00
2019-01-19T23:14:31.432Z,100.00
2019-01-19T23:16:59.861Z,100.00
2019-01-19T23:19:29.306Z,100.00
2019-01-19T23:21:58.605Z,100.00
2019-01-19T23:24:27.933Z,100.00
2019-01-19T23:27:16.706Z,100.00
2019-01-19T23:29:45.434Z,100.00
2019-01-19T23:32:14.755Z,100.00
2019-01-19T23:34:44.076Z,100.00
2019-01-19T23:37:13.398Z,100.00
2019-01-19T23:39:42.751Z,100.00
2019-01-19T23:42:11.160Z,100.00
2019-01-19T23:44:39.688Z,100.00
2019-01-19T23:47:09.013Z,100.00
2019-01-19T23:49:38.344Z,100.00
2019-01-19T23:52:07.771Z,100.00
2019-01-19T23:54:37.109Z,100.00
2019-01-19T23:57:06.430Z,100.00
2019-01-19T23:59:34.853Z,100.00
